sensor_id;sensor_type;location;lat;lon;timestamp;temperature;humidity
44117;DHT22;29781;49.480;8.512;2022-08-25T00:01:23;25.30;86.00
44117;DHT22;29781;49.480;8.512;2022-08-25T00:03:49;25.20;86.80
44117;DHT22;29781;49.480;8.512;2022-08-25T00:06:15;25.20;87.20
44117;DHT22;29781;49.480;8.512;2022-08-25T00:08:42;24.90;88.20
44117;DHT22;29781;49.480;8.512;2022-08-25T00:11:13;24.50;89.90
44117;DHT22;29781;49.480;8.512;2022-08-25T00:13:41;23.90;91.20
44117;DHT22;29781;49.480;8.512;2022-08-25T00:16:08;23.60;92.60
44117;DHT22;29781;49.480;8.512;2022-08-25T00:18:34;23.50;92.40
44117;DHT22;29781;49.480;8.512;2022-08-25T00:21:02;23.70;92.10
44117;DHT22;29781;49.480;8.512;2022-08-25T00:23:27;23.60;92.20
44117;DHT22;29781;49.480;8.512;2022-08-25T00:25:53;23.80;92.00
44117;DHT22;29781;49.480;8.512;2022-08-25T00:28:20;23.80;92.40
44117;DHT22;29781;49.480;8.512;2022-08-25T00:30:45;23.90;92.10
44117;DHT22;29781;49.480;8.512;2022-08-25T00:33:11;24.10;92.40
44117;DHT22;29781;49.480;8.512;2022-08-25T00:35:39;24.00;93.70
44117;DHT22;29781;49.480;8.512;2022-08-25T00:38:07;24.20;92.90
44117;DHT22;29781;49.480;8.512;2022-08-25T00:40:33;24.30;93.00
44117;DHT22;29781;49.480;8.512;2022-08-25T00:42:58;24.40;92.10
44117;DHT22;29781;49.480;8.512;2022-08-25T00:45:24;24.50;91.90
44117;DHT22;29781;49.480;8.512;2022-08-25T00:47:50;24.50;92.50
44117;DHT22;29781;49.480;8.512;2022-08-25T00:50:18;24.60;91.70
44117;DHT22;29781;49.480;8.512;2022-08-25T00:52:49;24.70;91.50
44117;DHT22;29781;49.480;8.512;2022-08-25T00:55:19;24.50;91.50
44117;DHT22;29781;49.480;8.512;2022-08-25T00:57:51;24.40;91.70
44117;DHT22;29781;49.480;8.512;2022-08-25T01:00:21;24.30;92.00
44117;DHT22;29781;49.480;8.512;2022-08-25T01:02:47;24.00;92.10
44117;DHT22;29781;49.480;8.512;2022-08-25T01:05:13;24.00;92.20
44117;DHT22;29781;49.480;8.512;2022-08-25T01:07:39;24.00;92.20
44117;DHT22;29781;49.480;8.512;2022-08-25T01:10:07;23.90;92.70
44117;DHT22;29781;49.480;8.512;2022-08-25T01:12:34;23.60;93.40
44117;DHT22;29781;49.480;8.512;2022-08-25T01:15:03;23.50;93.30
44117;DHT22;29781;49.480;8.512;2022-08-25T01:17:34;23.70;93.30
44117;DHT22;29781;49.480;8.512;2022-08-25T01:20:00;23.60;93.70
44117;DHT22;29781;49.480;8.512;2022-08-25T01:22:25;23.60;93.70
44117;DHT22;29781;49.480;8.512;2022-08-25T01:24:59;23.70;93.90
44117;DHT22;29781;49.480;8.512;2022-08-25T01:27:25;23.80;93.50
44117;DHT22;29781;49.480;8.512;2022-08-25T01:29:51;23.90;93.70
44117;DHT22;29781;49.480;8.512;2022-08-25T01:32:17;23.90;93.70
44117;DHT22;29781;49.480;8.512;2022-08-25T01:34:44;24.10;93.40
44117;DHT22;29781;49.480;8.512;2022-08-25T01:37:11;24.20;92.90
44117;DHT22;29781;49.480;8.512;2022-08-25T01:39:38;24.30;93.00
44117;DHT22;29781;49.480;8.512;2022-08-25T01:44:41;24.20;93.00
44117;DHT22;29781;49.480;8.512;2022-08-25T01:47:07;24.10;93.20
44117;DHT22;29781;49.480;8.512;2022-08-25T01:49:33;24.10;93.00
44117;DHT22;29781;49.480;8.512;2022-08-25T01:54:30;24.30;92.80
44117;DHT22;29781;49.480;8.512;2022-08-25T01:56:57;24.30;92.60
44117;DHT22;29781;49.480;8.512;2022-08-25T01:59:23;24.20;92.60
44117;DHT22;29781;49.480;8.512;2022-08-25T02:01:50;24.00;92.60
44117;DHT22;29781;49.480;8.512;2022-08-25T02:04:16;23.90;93.10
44117;DHT22;29781;49.480;8.512;2022-08-25T02:06:41;23.80;93.20
44117;DHT22;29781;49.480;8.512;2022-08-25T02:09:12;23.20;94.10
44117;DHT22;29781;49.480;8.512;2022-08-25T02:11:41;23.20;94.20
44117;DHT22;29781;49.480;8.512;2022-08-25T02:14:09;23.10;94.40
44117;DHT22;29781;49.480;8.512;2022-08-25T02:16:37;23.10;94.50
44117;DHT22;29781;49.480;8.512;2022-08-25T02:19:04;23.10;94.50
44117;DHT22;29781;49.480;8.512;2022-08-25T02:21:31;23.00;94.90
44117;DHT22;29781;49.480;8.512;2022-08-25T02:23:58;22.80;95.60
44117;DHT22;29781;49.480;8.512;2022-08-25T02:26:24;22.90;95.30
44117;DHT22;29781;49.480;8.512;2022-08-25T02:28:51;23.10;95.30
44117;DHT22;29781;49.480;8.512;2022-08-25T02:31:19;23.30;94.80
44117;DHT22;29781;49.480;8.512;2022-08-25T02:33:46;23.40;94.70
44117;DHT22;29781;49.480;8.512;2022-08-25T02:36:11;23.40;94.60
44117;DHT22;29781;49.480;8.512;2022-08-25T02:38:38;23.40;94.70
44117;DHT22;29781;49.480;8.512;2022-08-25T02:41:10;23.40;94.90
44117;DHT22;29781;49.480;8.512;2022-08-25T02:43:37;23.50;94.80
44117;DHT22;29781;49.480;8.512;2022-08-25T02:46:03;23.20;95.00
44117;DHT22;29781;49.480;8.512;2022-08-25T02:48:29;23.20;95.00
44117;DHT22;29781;49.480;8.512;2022-08-25T02:50:58;23.20;95.30
44117;DHT22;29781;49.480;8.512;2022-08-25T02:53:26;23.40;95.10
44117;DHT22;29781;49.480;8.512;2022-08-25T02:55:52;23.30;95.10
44117;DHT22;29781;49.480;8.512;2022-08-25T02:58:18;22.90;95.70
44117;DHT22;29781;49.480;8.512;2022-08-25T03:00:45;23.00;95.90
44117;DHT22;29781;49.480;8.512;2022-08-25T03:03:11;23.00;95.80
44117;DHT22;29781;49.480;8.512;2022-08-25T03:05:37;23.00;95.90
44117;DHT22;29781;49.480;8.512;2022-08-25T03:08:04;23.20;95.80
44117;DHT22;29781;49.480;8.512;2022-08-25T03:10:30;23.00;96.80
44117;DHT22;29781;49.480;8.512;2022-08-25T03:12:56;23.00;97.20
44117;DHT22;29781;49.480;8.512;2022-08-25T03:15:22;22.80;97.80
44117;DHT22;29781;49.480;8.512;2022-08-25T03:17:50;22.70;97.80
44117;DHT22;29781;49.480;8.512;2022-08-25T03:20:16;22.60;97.90
44117;DHT22;29781;49.480;8.512;2022-08-25T03:22:42;22.60;98.30
44117;DHT22;29781;49.480;8.512;2022-08-25T03:25:08;22.80;98.10
44117;DHT22;29781;49.480;8.512;2022-08-25T03:27:52;22.90;98.00
44117;DHT22;29781;49.480;8.512;2022-08-25T03:30:19;23.10;97.80
44117;DHT22;29781;49.480;8.512;2022-08-25T03:32:45;23.20;97.50
44117;DHT22;29781;49.480;8.512;2022-08-25T03:35:10;23.40;96.30
44117;DHT22;29781;49.480;8.512;2022-08-25T03:37:37;23.50;95.90
44117;DHT22;29781;49.480;8.512;2022-08-25T03:40:05;23.50;95.80
44117;DHT22;29781;49.480;8.512;2022-08-25T03:42:32;23.50;96.00
44117;DHT22;29781;49.480;8.512;2022-08-25T03:44:58;23.30;96.10
44117;DHT22;29781;49.480;8.512;2022-08-25T03:47:23;22.80;97.30
44117;DHT22;29781;49.480;8.512;2022-08-25T03:49:51;22.70;98.10
44117;DHT22;29781;49.480;8.512;2022-08-25T03:52:16;22.70;97.80
44117;DHT22;29781;49.480;8.512;2022-08-25T03:54:43;22.30;98.50
44117;DHT22;29781;49.480;8.512;2022-08-25T03:57:09;22.30;98.50
44117;DHT22;29781;49.480;8.512;2022-08-25T03:59:35;22.50;98.20
44117;DHT22;29781;49.480;8.512;2022-08-25T04:02:06;22.50;98.10
44117;DHT22;29781;49.480;8.512;2022-08-25T04:04:32;22.50;97.60
44117;DHT22;29781;49.480;8.512;2022-08-25T04:06:58;22.50;97.50
44117;DHT22;29781;49.480;8.512;2022-08-25T04:09:24;22.30;97.10
44117;DHT22;29781;49.480;8.512;2022-08-25T04:11:50;22.50;97.20
44117;DHT22;29781;49.480;8.512;2022-08-25T04:14:16;22.50;97.00
44117;DHT22;29781;49.480;8.512;2022-08-25T04:16:43;22.60;97.10
44117;DHT22;29781;49.480;8.512;2022-08-25T04:19:09;22.70;97.00
44117;DHT22;29781;49.480;8.512;2022-08-25T04:21:37;22.70;96.90
44117;DHT22;29781;49.480;8.512;2022-08-25T04:24:04;22.90;96.80
44117;DHT22;29781;49.480;8.512;2022-08-25T04:26:34;22.90;96.80
44117;DHT22;29781;49.480;8.512;2022-08-25T04:29:03;23.00;96.50
44117;DHT22;29781;49.480;8.512;2022-08-25T04:31:30;23.00;96.50
44117;DHT22;29781;49.480;8.512;2022-08-25T04:33:56;23.10;96.50
44117;DHT22;29781;49.480;8.512;2022-08-25T04:36:22;23.10;96.50
44117;DHT22;29781;49.480;8.512;2022-08-25T04:38:48;23.00;96.60
44117;DHT22;29781;49.480;8.512;2022-08-25T04:41:16;23.10;96.60
44117;DHT22;29781;49.480;8.512;2022-08-25T04:43:43;23.10;96.60
44117;DHT22;29781;49.480;8.512;2022-08-25T04:46:17;23.00;96.60
44117;DHT22;29781;49.480;8.512;2022-08-25T04:48:43;23.10;96.60
44117;DHT22;29781;49.480;8.512;2022-08-25T04:51:12;23.10;96.40
44117;DHT22;29781;49.480;8.512;2022-08-25T04:53:39;23.10;96.60
44117;DHT22;29781;49.480;8.512;2022-08-25T04:56:11;23.00;96.60
44117;DHT22;29781;49.480;8.512;2022-08-25T04:58:37;22.70;97.50
44117;DHT22;29781;49.480;8.512;2022-08-25T05:01:08;22.20;97.50
44117;DHT22;29781;49.480;8.512;2022-08-25T05:03:35;22.10;98.10
44117;DHT22;29781;49.480;8.512;2022-08-25T05:06:02;21.90;98.30
44117;DHT22;29781;49.480;8.512;2022-08-25T05:08:28;21.80;98.40
44117;DHT22;29781;49.480;8.512;2022-08-25T05:10:53;21.80;98.20
44117;DHT22;29781;49.480;8.512;2022-08-25T05:13:22;21.70;98.40
44117;DHT22;29781;49.480;8.512;2022-08-25T05:15:55;21.70;98.80
44117;DHT22;29781;49.480;8.512;2022-08-25T05:18:24;21.30;99.20
44117;DHT22;29781;49.480;8.512;2022-08-25T05:20:51;21.10;99.60
44117;DHT22;29781;49.480;8.512;2022-08-25T05:23:19;21.10;99.90
44117;DHT22;29781;49.480;8.512;2022-08-25T05:25:46;21.20;99.90
44117;DHT22;29781;49.480;8.512;2022-08-25T05:28:11;21.10;99.80
44117;DHT22;29781;49.480;8.512;2022-08-25T05:30:40;21.00;99.90
44117;DHT22;29781;49.480;8.512;2022-08-25T05:33:06;20.90;99.90
44117;DHT22;29781;49.480;8.512;2022-08-25T05:35:32;20.90;99.90
44117;DHT22;29781;49.480;8.512;2022-08-25T05:37:58;21.00;99.90
44117;DHT22;29781;49.480;8.512;2022-08-25T05:40:24;21.10;99.90
44117;DHT22;29781;49.480;8.512;2022-08-25T05:42:50;21.50;99.50
44117;DHT22;29781;49.480;8.512;2022-08-25T05:45:16;21.90;98.80
44117;DHT22;29781;49.480;8.512;2022-08-25T05:47:42;22.20;98.30
44117;DHT22;29781;49.480;8.512;2022-08-25T05:50:08;22.50;98.00
44117;DHT22;29781;49.480;8.512;2022-08-25T05:52:34;22.70;97.60
44117;DHT22;29781;49.480;8.512;2022-08-25T05:55:00;22.90;97.40
44117;DHT22;29781;49.480;8.512;2022-08-25T05:57:26;22.80;97.50
44117;DHT22;29781;49.480;8.512;2022-08-25T05:59:51;22.90;97.60
44117;DHT22;29781;49.480;8.512;2022-08-25T06:02:17;22.90;97.80
44117;DHT22;29781;49.480;8.512;2022-08-25T06:05:02;22.90;97.70
44117;DHT22;29781;49.480;8.512;2022-08-25T06:07:27;22.40;98.30
44117;DHT22;29781;49.480;8.512;2022-08-25T06:09:54;22.20;99.20
44117;DHT22;29781;49.480;8.512;2022-08-25T06:12:19;22.30;99.20
44117;DHT22;29781;49.480;8.512;2022-08-25T06:14:46;22.50;98.90
44117;DHT22;29781;49.480;8.512;2022-08-25T06:17:14;22.70;98.60
44117;DHT22;29781;49.480;8.512;2022-08-25T06:19:39;22.80;98.60
44117;DHT22;29781;49.480;8.512;2022-08-25T06:22:05;22.90;98.30
44117;DHT22;29781;49.480;8.512;2022-08-25T06:24:31;23.00;98.30
44117;DHT22;29781;49.480;8.512;2022-08-25T06:26:58;23.20;98.10
44117;DHT22;29781;49.480;8.512;2022-08-25T06:29:24;23.30;98.10
44117;DHT22;29781;49.480;8.512;2022-08-25T06:31:50;23.40;97.80
44117;DHT22;29781;49.480;8.512;2022-08-25T06:34:16;23.50;97.80
44117;DHT22;29781;49.480;8.512;2022-08-25T06:36:42;23.70;97.70
44117;DHT22;29781;49.480;8.512;2022-08-25T06:39:08;23.80;97.50
44117;DHT22;29781;49.480;8.512;2022-08-25T06:41:34;23.80;97.50
44117;DHT22;29781;49.480;8.512;2022-08-25T06:44:00;23.80;97.80
44117;DHT22;29781;49.480;8.512;2022-08-25T06:46:26;23.80;97.90
44117;DHT22;29781;49.480;8.512;2022-08-25T06:48:53;23.60;98.20
44117;DHT22;29781;49.480;8.512;2022-08-25T06:51:20;23.60;98.90
44117;DHT22;29781;49.480;8.512;2022-08-25T06:53:47;23.60;98.80
44117;DHT22;29781;49.480;8.512;2022-08-25T06:56:15;23.60;98.90
44117;DHT22;29781;49.480;8.512;2022-08-25T06:58:41;23.70;99.20
44117;DHT22;29781;49.480;8.512;2022-08-25T07:03:36;23.90;98.90
44117;DHT22;29781;49.480;8.512;2022-08-25T07:06:02;24.00;98.70
44117;DHT22;29781;49.480;8.512;2022-08-25T07:08:28;24.20;98.40
44117;DHT22;29781;49.480;8.512;2022-08-25T07:10:54;24.20;98.20
44117;DHT22;29781;49.480;8.512;2022-08-25T07:13:20;24.20;98.40
44117;DHT22;29781;49.480;8.512;2022-08-25T07:15:45;24.40;97.90
44117;DHT22;29781;49.480;8.512;2022-08-25T07:18:11;24.60;97.70
44117;DHT22;29781;49.480;8.512;2022-08-25T07:20:38;24.80;97.20
44117;DHT22;29781;49.480;8.512;2022-08-25T07:23:05;25.00;96.90
44117;DHT22;29781;49.480;8.512;2022-08-25T07:25:32;25.20;96.80
44117;DHT22;29781;49.480;8.512;2022-08-25T07:27:58;25.20;96.50
44117;DHT22;29781;49.480;8.512;2022-08-25T07:30:23;25.40;96.10
44117;DHT22;29781;49.480;8.512;2022-08-25T07:32:49;25.40;96.30
44117;DHT22;29781;49.480;8.512;2022-08-25T07:35:15;25.30;96.20
44117;DHT22;29781;49.480;8.512;2022-08-25T07:37:51;25.30;96.20
44117;DHT22;29781;49.480;8.512;2022-08-25T07:40:21;25.40;96.20
44117;DHT22;29781;49.480;8.512;2022-08-25T07:42:52;24.80;96.80
44117;DHT22;29781;49.480;8.512;2022-08-25T07:45:19;24.90;97.10
44117;DHT22;29781;49.480;8.512;2022-08-25T07:47:46;25.00;97.00
44117;DHT22;29781;49.480;8.512;2022-08-25T07:50:12;25.20;96.70
44117;DHT22;29781;49.480;8.512;2022-08-25T07:52:39;25.30;96.60
44117;DHT22;29781;49.480;8.512;2022-08-25T07:55:05;25.10;96.40
44117;DHT22;29781;49.480;8.512;2022-08-25T07:57:32;25.10;96.80
44117;DHT22;29781;49.480;8.512;2022-08-25T07:59:58;25.00;96.70
44117;DHT22;29781;49.480;8.512;2022-08-25T08:02:24;25.00;96.90
44117;DHT22;29781;49.480;8.512;2022-08-25T08:04:52;25.40;96.40
44117;DHT22;29781;49.480;8.512;2022-08-25T08:07:22;25.70;95.80
44117;DHT22;29781;49.480;8.512;2022-08-25T08:09:49;26.10;95.30
44117;DHT22;29781;49.480;8.512;2022-08-25T08:12:15;25.80;95.70
44117;DHT22;29781;49.480;8.512;2022-08-25T08:14:40;25.80;96.00
44117;DHT22;29781;49.480;8.512;2022-08-25T08:17:07;25.80;96.40
44117;DHT22;29781;49.480;8.512;2022-08-25T08:19:34;26.20;95.10
44117;DHT22;29781;49.480;8.512;2022-08-25T08:22:00;25.90;95.20
44117;DHT22;29781;49.480;8.512;2022-08-25T08:24:28;25.80;95.30
44117;DHT22;29781;49.480;8.512;2022-08-25T08:26:54;25.90;95.40
44117;DHT22;29781;49.480;8.512;2022-08-25T08:29:20;26.10;95.00
44117;DHT22;29781;49.480;8.512;2022-08-25T08:31:47;26.20;95.00
44117;DHT22;29781;49.480;8.512;2022-08-25T08:34:13;26.20;94.90
44117;DHT22;29781;49.480;8.512;2022-08-25T08:36:38;26.10;94.60
44117;DHT22;29781;49.480;8.512;2022-08-25T08:39:04;26.20;94.90
44117;DHT22;29781;49.480;8.512;2022-08-25T08:53:00;26.70;94.10
44117;DHT22;29781;49.480;8.512;2022-08-25T08:55:26;27.00;93.50
44117;DHT22;29781;49.480;8.512;2022-08-25T08:57:54;26.80;93.30
44117;DHT22;29781;49.480;8.512;2022-08-25T09:00:21;26.80;93.20
44117;DHT22;29781;49.480;8.512;2022-08-25T09:05:14;26.50;93.30
44117;DHT22;29781;49.480;8.512;2022-08-25T09:07:48;26.60;93.60
44117;DHT22;29781;49.480;8.512;2022-08-25T09:10:16;26.50;93.40
44117;DHT22;29781;49.480;8.512;2022-08-25T09:12:58;26.30;93.80
44117;DHT22;29781;49.480;8.512;2022-08-25T09:18:55;26.40;94.00
44117;DHT22;29781;49.480;8.512;2022-08-25T09:27:28;26.80;93.50
44117;DHT22;29781;49.480;8.512;2022-08-25T09:30:10;26.90;93.10
44117;DHT22;29781;49.480;8.512;2022-08-25T09:32:42;26.70;93.10
44117;DHT22;29781;49.480;8.512;2022-08-25T09:35:21;26.50;93.50
44117;DHT22;29781;49.480;8.512;2022-08-25T09:37:56;26.80;93.20
44117;DHT22;29781;49.480;8.512;2022-08-25T09:40:22;26.90;93.10
44117;DHT22;29781;49.480;8.512;2022-08-25T09:42:56;27.00;93.10
44117;DHT22;29781;49.480;8.512;2022-08-25T09:45:35;27.30;92.60
44117;DHT22;29781;49.480;8.512;2022-08-25T09:48:22;27.20;92.40
44117;DHT22;29781;49.480;8.512;2022-08-25T09:50:50;27.10;92.60
44117;DHT22;29781;49.480;8.512;2022-08-25T09:53:17;27.20;92.70
44117;DHT22;29781;49.480;8.512;2022-08-25T09:55:45;27.30;92.80
44117;DHT22;29781;49.480;8.512;2022-08-25T09:58:22;27.40;92.60
44117;DHT22;29781;49.480;8.512;2022-08-25T10:03:25;27.50;92.30
44117;DHT22;29781;49.480;8.512;2022-08-25T10:06:05;27.50;92.10
44117;DHT22;29781;49.480;8.512;2022-08-25T10:08:37;27.40;91.70
44117;DHT22;29781;49.480;8.512;2022-08-25T10:16:45;27.40;91.90
44117;DHT22;29781;49.480;8.512;2022-08-25T10:19:27;27.50;92.10
44117;DHT22;29781;49.480;8.512;2022-08-25T10:24:33;27.70;91.60
44117;DHT22;29781;49.480;8.512;2022-08-25T10:30:05;28.20;90.30
44117;DHT22;29781;49.480;8.512;2022-08-25T10:35:19;28.70;89.70
44117;DHT22;29781;49.480;8.512;2022-08-25T10:46:23;28.90;88.20
44117;DHT22;29781;49.480;8.512;2022-08-25T10:49:07;28.90;88.50
44117;DHT22;29781;49.480;8.512;2022-08-25T10:52:00;29.00;88.50
44117;DHT22;29781;49.480;8.512;2022-08-25T10:57:21;28.70;88.90
44117;DHT22;29781;49.480;8.512;2022-08-25T11:00:05;28.60;89.50
44117;DHT22;29781;49.480;8.512;2022-08-25T11:11:01;28.50;89.00
44117;DHT22;29781;49.480;8.512;2022-08-25T11:13:42;28.70;89.50
44117;DHT22;29781;49.480;8.512;2022-08-25T11:16:27;28.90;88.10
44117;DHT22;29781;49.480;8.512;2022-08-25T11:21:50;29.30;87.30
44117;DHT22;29781;49.480;8.512;2022-08-25T11:26:52;29.60;86.20
44117;DHT22;29781;49.480;8.512;2022-08-25T11:29:20;29.80;86.00
44117;DHT22;29781;49.480;8.512;2022-08-25T11:31:50;30.10;85.10
44117;DHT22;29781;49.480;8.512;2022-08-25T11:34:17;30.40;84.30
44117;DHT22;29781;49.480;8.512;2022-08-25T11:36:57;30.50;83.90
44117;DHT22;29781;49.480;8.512;2022-08-25T11:47:47;30.20;83.80
44117;DHT22;29781;49.480;8.512;2022-08-25T11:50:35;30.20;83.50
44117;DHT22;29781;49.480;8.512;2022-08-25T11:53:15;30.00;83.10
44117;DHT22;29781;49.480;8.512;2022-08-25T11:55:50;29.80;84.30
44117;DHT22;29781;49.480;8.512;2022-08-25T12:00:51;30.10;83.40
44117;DHT22;29781;49.480;8.512;2022-08-25T12:06:27;30.40;82.30
44117;DHT22;29781;49.480;8.512;2022-08-25T12:11:46;30.40;81.50
44117;DHT22;29781;49.480;8.512;2022-08-25T12:19:47;30.50;81.70
44117;DHT22;29781;49.480;8.512;2022-08-25T12:35:48;30.50;81.00
44117;DHT22;29781;49.480;8.512;2022-08-25T12:38:46;30.20;81.70
44117;DHT22;29781;49.480;8.512;2022-08-25T12:41:16;30.20;81.60
44117;DHT22;29781;49.480;8.512;2022-08-25T12:43:45;30.00;82.60
44117;DHT22;29781;49.480;8.512;2022-08-25T12:51:45;30.10;81.70
44117;DHT22;29781;49.480;8.512;2022-08-25T12:57:35;30.00;82.00
44117;DHT22;29781;49.480;8.512;2022-08-25T13:00:05;30.40;80.60
44117;DHT22;29781;49.480;8.512;2022-08-25T13:02:57;30.10;80.90
44117;DHT22;29781;49.480;8.512;2022-08-25T13:05:56;29.80;81.50
44117;DHT22;29781;49.480;8.512;2022-08-25T13:11:16;29.60;81.70
44117;DHT22;29781;49.480;8.512;2022-08-25T13:16:27;29.50;82.10
44117;DHT22;29781;49.480;8.512;2022-08-25T13:18:54;29.50;81.40
44117;DHT22;29781;49.480;8.512;2022-08-25T13:21:32;29.70;81.60
44117;DHT22;29781;49.480;8.512;2022-08-25T13:24:00;29.80;81.10
44117;DHT22;29781;49.480;8.512;2022-08-25T13:26:41;30.30;80.10
44117;DHT22;29781;49.480;8.512;2022-08-25T13:31:34;30.30;78.60
44117;DHT22;29781;49.480;8.512;2022-08-25T13:34:05;30.00;78.70
44117;DHT22;29781;49.480;8.512;2022-08-25T13:36:36;30.00;78.80
44117;DHT22;29781;49.480;8.512;2022-08-25T13:39:26;30.00;78.80
44117;DHT22;29781;49.480;8.512;2022-08-25T13:41:54;30.40;78.50
44117;DHT22;29781;49.480;8.512;2022-08-25T13:44:22;30.50;78.50
44117;DHT22;29781;49.480;8.512;2022-08-25T13:47:11;30.10;78.20
44117;DHT22;29781;49.480;8.512;2022-08-25T13:49:39;30.00;79.10
44117;DHT22;29781;49.480;8.512;2022-08-25T13:52:06;30.00;79.20
44117;DHT22;29781;49.480;8.512;2022-08-25T13:54:38;30.00;79.20
44117;DHT22;29781;49.480;8.512;2022-08-25T13:59:38;29.90;78.90
44117;DHT22;29781;49.480;8.512;2022-08-25T14:02:07;29.80;78.30
44117;DHT22;29781;49.480;8.512;2022-08-25T14:07:26;29.80;79.00
44117;DHT22;29781;49.480;8.512;2022-08-25T14:12:42;29.70;79.30
44117;DHT22;29781;49.480;8.512;2022-08-25T14:18:03;30.10;78.70
44117;DHT22;29781;49.480;8.512;2022-08-25T14:20:31;30.20;78.20
44117;DHT22;29781;49.480;8.512;2022-08-25T14:23:05;30.30;78.40
44117;DHT22;29781;49.480;8.512;2022-08-25T14:25:31;30.40;78.10
44117;DHT22;29781;49.480;8.512;2022-08-25T14:28:05;30.60;77.80
44117;DHT22;29781;49.480;8.512;2022-08-25T14:30:36;30.50;78.00
44117;DHT22;29781;49.480;8.512;2022-08-25T14:33:04;30.50;78.10
44117;DHT22;29781;49.480;8.512;2022-08-25T14:35:29;30.50;78.20
44117;DHT22;29781;49.480;8.512;2022-08-25T14:37:56;30.50;78.00
44117;DHT22;29781;49.480;8.512;2022-08-25T14:40:21;30.50;77.80
44117;DHT22;29781;49.480;8.512;2022-08-25T14:42:48;30.40;78.00
44117;DHT22;29781;49.480;8.512;2022-08-25T14:45:15;30.40;77.90
44117;DHT22;29781;49.480;8.512;2022-08-25T14:47:42;30.40;77.10
44117;DHT22;29781;49.480;8.512;2022-08-25T14:50:10;30.30;77.20
44117;DHT22;29781;49.480;8.512;2022-08-25T14:52:36;30.30;77.60
44117;DHT22;29781;49.480;8.512;2022-08-25T14:55:02;30.30;77.20
44117;DHT22;29781;49.480;8.512;2022-08-25T14:57:28;30.30;77.10
44117;DHT22;29781;49.480;8.512;2022-08-25T14:59:53;30.20;77.30
44117;DHT22;29781;49.480;8.512;2022-08-25T15:02:21;30.20;77.10
44117;DHT22;29781;49.480;8.512;2022-08-25T15:04:56;30.10;77.30
44117;DHT22;29781;49.480;8.512;2022-08-25T15:07:30;30.10;77.80
44117;DHT22;29781;49.480;8.512;2022-08-25T15:10:15;30.10;77.80
44117;DHT22;29781;49.480;8.512;2022-08-25T15:12:40;30.00;77.70
44117;DHT22;29781;49.480;8.512;2022-08-25T15:15:06;30.00;77.90
44117;DHT22;29781;49.480;8.512;2022-08-25T15:17:34;30.00;78.10
44117;DHT22;29781;49.480;8.512;2022-08-25T15:20:00;30.00;77.90
44117;DHT22;29781;49.480;8.512;2022-08-25T15:22:26;30.00;77.80
44117;DHT22;29781;49.480;8.512;2022-08-25T15:24:51;29.90;79.00
44117;DHT22;29781;49.480;8.512;2022-08-25T15:27:19;29.90;77.70
44117;DHT22;29781;49.480;8.512;2022-08-25T15:29:45;30.00;78.60
44117;DHT22;29781;49.480;8.512;2022-08-25T15:32:11;30.00;78.40
44117;DHT22;29781;49.480;8.512;2022-08-25T15:34:37;30.10;77.30
44117;DHT22;29781;49.480;8.512;2022-08-25T15:37:12;30.30;76.80
44117;DHT22;29781;49.480;8.512;2022-08-25T15:39:39;30.30;76.60
44117;DHT22;29781;49.480;8.512;2022-08-25T15:42:05;30.30;76.90
44117;DHT22;29781;49.480;8.512;2022-08-25T15:44:32;30.40;76.80
44117;DHT22;29781;49.480;8.512;2022-08-25T15:46:58;30.20;76.20
44117;DHT22;29781;49.480;8.512;2022-08-25T15:49:24;30.20;77.00
44117;DHT22;29781;49.480;8.512;2022-08-25T15:51:51;30.10;76.20
44117;DHT22;29781;49.480;8.512;2022-08-25T15:54:17;30.10;77.10
44117;DHT22;29781;49.480;8.512;2022-08-25T15:56:44;30.20;77.10
44117;DHT22;29781;49.480;8.512;2022-08-25T15:59:10;30.20;77.00
44117;DHT22;29781;49.480;8.512;2022-08-25T16:01:38;30.30;76.10
44117;DHT22;29781;49.480;8.512;2022-08-25T16:04:04;30.40;76.10
44117;DHT22;29781;49.480;8.512;2022-08-25T16:06:30;30.50;78.70
44117;DHT22;29781;49.480;8.512;2022-08-25T16:08:55;30.60;77.00
44117;DHT22;29781;49.480;8.512;2022-08-25T16:11:23;30.70;75.00
44117;DHT22;29781;49.480;8.512;2022-08-25T16:13:50;30.80;75.20
44117;DHT22;29781;49.480;8.512;2022-08-25T16:16:17;30.70;74.00
44117;DHT22;29781;49.480;8.512;2022-08-25T16:18:43;30.80;74.70
44117;DHT22;29781;49.480;8.512;2022-08-25T16:21:11;30.80;75.30
44117;DHT22;29781;49.480;8.512;2022-08-25T16:23:38;30.90;75.10
44117;DHT22;29781;49.480;8.512;2022-08-25T16:26:06;30.90;75.10
44117;DHT22;29781;49.480;8.512;2022-08-25T16:28:34;31.00;75.70
44117;DHT22;29781;49.480;8.512;2022-08-25T16:31:00;31.00;74.90
44117;DHT22;29781;49.480;8.512;2022-08-25T16:33:25;31.00;75.10
44117;DHT22;29781;49.480;8.512;2022-08-25T16:35:51;31.10;74.50
44117;DHT22;29781;49.480;8.512;2022-08-25T16:38:17;31.20;74.90
44117;DHT22;29781;49.480;8.512;2022-08-25T16:40:43;31.20;74.80
44117;DHT22;29781;49.480;8.512;2022-08-25T16:43:11;31.20;75.20
44117;DHT22;29781;49.480;8.512;2022-08-25T16:45:37;31.30;74.80
44117;DHT22;29781;49.480;8.512;2022-08-25T16:48:04;31.30;74.10
44117;DHT22;29781;49.480;8.512;2022-08-25T16:50:29;31.30;74.10
44117;DHT22;29781;49.480;8.512;2022-08-25T16:52:56;31.30;73.60
44117;DHT22;29781;49.480;8.512;2022-08-25T16:55:41;31.30;74.80
44117;DHT22;29781;49.480;8.512;2022-08-25T16:58:07;31.30;74.50
44117;DHT22;29781;49.480;8.512;2022-08-25T17:00:36;31.30;72.60
44117;DHT22;29781;49.480;8.512;2022-08-25T17:03:03;31.40;71.90
44117;DHT22;29781;49.480;8.512;2022-08-25T17:05:30;31.40;72.00
44117;DHT22;29781;49.480;8.512;2022-08-25T17:08:00;31.30;72.40
44117;DHT22;29781;49.480;8.512;2022-08-25T17:10:45;31.20;73.40
44117;DHT22;29781;49.480;8.512;2022-08-25T17:13:11;31.10;73.80
44117;DHT22;29781;49.480;8.512;2022-08-25T17:15:42;31.10;74.10
44117;DHT22;29781;49.480;8.512;2022-08-25T17:18:08;31.10;74.00
44117;DHT22;29781;49.480;8.512;2022-08-25T17:20:35;31.10;73.60
44117;DHT22;29781;49.480;8.512;2022-08-25T17:23:03;31.00;75.20
44117;DHT22;29781;49.480;8.512;2022-08-25T17:25:33;31.00;74.30
44117;DHT22;29781;49.480;8.512;2022-08-25T17:27:59;30.90;74.10
44117;DHT22;29781;49.480;8.512;2022-08-25T17:30:24;30.90;74.70
44117;DHT22;29781;49.480;8.512;2022-08-25T17:32:50;30.80;73.60
44117;DHT22;29781;49.480;8.512;2022-08-25T17:35:16;30.70;74.20
44117;DHT22;29781;49.480;8.512;2022-08-25T17:37:41;30.70;74.20
44117;DHT22;29781;49.480;8.512;2022-08-25T17:40:07;30.70;74.80
44117;DHT22;29781;49.480;8.512;2022-08-25T17:42:34;30.60;74.60
44117;DHT22;29781;49.480;8.512;2022-08-25T17:44:59;30.70;75.30
44117;DHT22;29781;49.480;8.512;2022-08-25T17:47:25;30.60;74.30
44117;DHT22;29781;49.480;8.512;2022-08-25T17:49:51;30.50;74.80
44117;DHT22;29781;49.480;8.512;2022-08-25T17:52:17;30.40;74.90
44117;DHT22;29781;49.480;8.512;2022-08-25T17:54:42;30.40;75.10